Casville, North Carolina
Current Conditions -  °F | °C
As of 3:53 AM on Sunday 26 Oct 2014 (Local Time) from KDAN Reporting Station
Clear Clear  
Wind Chill: 52°   Ceiling: Unl
Heat Index: 52°   Visibility: 10mi
Dew Point: 47°   Wind: 5mph
Humidity: 83%   Direction: 220°SW
Pressure: 29.84"   Gusts: NA
Location:  36.4355°N, 79.5464°W
Report Text: KDAN 260753Z AUTO 22004KT 10SM CLR 11/08 A2984 RMK AO2 SLP095 T01110083
Loading
Personal Weather Stations






























Interactive Weather Map New forecast layout! Learn more

10-Day Weather Forecast

Advertisements
Track Severe Weather on mobile